createdAt,value
2019-05-07T00:01:54.983Z,11.08
2019-05-07T00:04:25.272Z,10.98
2019-05-07T00:06:56.674Z,11.12
2019-05-07T00:09:29.061Z,11.85
2019-05-07T00:12:04.699Z,10.93
2019-05-07T00:14:34.585Z,11.55
2019-05-07T00:17:06.142Z,10.95
2019-05-07T00:19:37.575Z,11.15
2019-05-07T00:22:08.949Z,11.00
2019-05-07T00:24:42.436Z,10.32
2019-05-07T00:27:13.497Z,11.05
2019-05-07T00:29:44.863Z,9.73
2019-05-07T00:32:16.223Z,10.00
2019-05-07T00:34:54.291Z,9.70
2019-05-07T00:37:27.037Z,10.23
2019-05-07T00:39:59.953Z,9.53
2019-05-07T00:42:32.897Z,9.13
2019-05-07T00:45:23.904Z,9.90
2019-05-07T00:47:55.168Z,10.60
2019-05-07T00:50:28.092Z,9.58
2019-05-07T00:52:59.484Z,10.15
2019-05-07T00:55:32.585Z,10.23
2019-05-07T00:58:04.182Z,10.18
2019-05-07T01:00:35.558Z,9.38
2019-05-07T01:03:06.952Z,9.43
2019-05-07T01:05:39.284Z,9.45
2019-05-07T01:08:12.996Z,9.20
2019-05-07T01:10:43.862Z,9.38
2019-05-07T01:13:15.235Z,9.80
2019-05-07T01:15:46.637Z,9.35
2019-05-07T01:18:18.042Z,9.30
2019-05-07T01:20:49.439Z,10.00
2019-05-07T01:23:22.914Z,10.35
2019-05-07T01:25:53.837Z,9.83
2019-05-07T01:28:25.316Z,9.50
2019-05-07T01:30:56.755Z,9.80
2019-05-07T01:33:44.767Z,9.70
2019-05-07T01:36:17.633Z,9.70
2019-05-07T01:38:49.023Z,9.45
2019-05-07T01:41:20.403Z,9.53
2019-05-07T01:43:52.423Z,10.40
2019-05-07T01:46:24.797Z,9.83
2019-05-07T01:48:57.559Z,9.55
2019-05-07T01:51:29.195Z,8.98
2019-05-07T01:54:02.195Z,10.30
2019-05-07T01:56:33.679Z,10.48
2019-05-07T01:59:05.111Z,8.93
2019-05-07T02:01:36.431Z,9.88
2019-05-07T02:04:15.556Z,9.40
2019-05-07T02:07:06.639Z,9.75
2019-05-07T02:09:39.635Z,10.08
2019-05-07T02:12:13.207Z,10.30
2019-05-07T02:14:44.705Z,10.10
2019-05-07T02:17:17.183Z,10.45
2019-05-07T02:19:48.611Z,9.58
2019-05-07T02:22:22.712Z,10.88
2019-05-07T02:24:54.334Z,9.75
2019-05-07T02:27:25.717Z,9.80
2019-05-07T02:29:57.102Z,14.40
2019-05-07T02:32:28.519Z,10.63
2019-05-07T02:34:59.873Z,14.65
2019-05-07T02:37:41.847Z,13.18
2019-05-07T02:40:14.201Z,10.93
2019-05-07T02:42:44.536Z,10.00
2019-05-07T02:45:35.607Z,9.33
2019-05-07T02:48:07.018Z,10.05
2019-05-07T02:50:49.247Z,10.38
2019-05-07T02:53:22.844Z,9.88
2019-05-07T02:55:55.984Z,9.05
2019-05-07T02:58:27.336Z,9.68
2019-05-07T03:00:58.768Z,9.20
2019-05-07T03:03:33.217Z,9.15
2019-05-07T03:06:03.298Z,9.70
2019-05-07T03:08:34.848Z,10.13
2019-05-07T03:11:06.199Z,8.93
2019-05-07T03:13:37.551Z,11.50
2019-05-07T03:16:08.941Z,11.00
2019-05-07T03:18:43.523Z,11.03
2019-05-07T03:21:15.013Z,11.12
2019-05-07T03:23:53.875Z,10.82
2019-05-07T03:26:26.758Z,11.80
2019-05-07T03:28:59.817Z,11.10
2019-05-07T03:31:36.087Z,10.95
2019-05-07T03:34:07.609Z,11.15
2019-05-07T03:36:46.677Z,10.88
2019-05-07T03:39:14.634Z,10.30
2019-05-07T03:41:46.399Z,11.45
2019-05-07T03:44:35.322Z,11.35
2019-05-07T03:47:17.423Z,11.38
2019-05-07T03:49:49.655Z,9.93
2019-05-07T03:52:24.447Z,10.82
2019-05-07T03:54:56.168Z,10.53
2019-05-07T03:59:58.039Z,9.80
2019-05-07T04:02:32.888Z,9.38
2019-05-07T04:05:04.388Z,9.35
2019-05-07T04:07:35.570Z,8.63
2019-05-07T04:10:10.014Z,8.50
2019-05-07T04:12:44.305Z,9.28
2019-05-07T04:15:19.154Z,8.75
2019-05-07T04:17:49.158Z,8.80
2019-05-07T04:20:23.664Z,8.93
2019-05-07T04:22:53.890Z,7.92
2019-05-07T04:25:43.666Z,8.28
2019-05-07T04:28:16.621Z,8.60
2019-05-07T04:30:48.115Z,8.05
2019-05-07T04:35:53.790Z,7.55
2019-05-07T04:38:26.220Z,10.98
2019-05-07T04:40:57.597Z,8.00
2019-05-07T04:43:28.919Z,8.15
2019-05-07T04:46:03.179Z,8.25
2019-05-07T04:48:34.361Z,7.92
2019-05-07T04:51:07.469Z,7.50
2019-05-07T04:53:38.936Z,7.90
2019-05-07T04:56:23.813Z,7.95
2019-05-07T04:58:55.413Z,8.03
2019-05-07T05:03:58.947Z,8.28
2019-05-07T05:06:32.731Z,8.08
2019-05-07T05:09:05.054Z,7.78
2019-05-07T05:11:38.046Z,8.65
2019-05-07T05:14:09.576Z,7.50
2019-05-07T05:16:52.457Z,7.85
2019-05-07T05:19:24.204Z,7.85
2019-05-07T05:22:03.227Z,6.80
2019-05-07T05:24:36.553Z,6.28
2019-05-07T05:27:08.309Z,6.00
2019-05-07T05:32:46.062Z,6.25
2019-05-07T05:35:22.458Z,6.60
2019-05-07T05:38:02.992Z,6.72
2019-05-07T05:40:34.382Z,6.40
2019-05-07T05:43:27.195Z,7.12
2019-05-07T05:46:06.175Z,7.53
2019-05-07T05:48:37.590Z,7.75
2019-05-07T05:51:11.885Z,7.42
2019-05-07T05:53:44.992Z,6.35
2019-05-07T05:56:22.893Z,7.08
2019-05-07T05:58:58.382Z,6.37
2019-05-07T06:01:42.672Z,6.60
2019-05-07T06:04:24.252Z,6.95
2019-05-07T06:07:08.820Z,6.95
2019-05-07T06:09:32.752Z,6.78
2019-05-07T06:12:09.011Z,8.10
2019-05-07T06:14:42.514Z,9.35
2019-05-07T06:17:15.659Z,8.25
2019-05-07T06:20:04.636Z,7.50
2019-05-07T06:22:46.520Z,9.25
2019-05-07T06:25:19.465Z,10.30
2019-05-07T06:28:02.046Z,9.10
2019-05-07T06:30:42.004Z,9.13
2019-05-07T06:33:13.549Z,8.03
2019-05-07T06:38:15.742Z,8.15
2019-05-07T06:40:52.086Z,8.28
2019-05-07T06:43:26.764Z,7.37
2019-05-07T06:46:01.874Z,5.83
2019-05-07T06:48:42.533Z,5.72
2019-05-07T06:51:17.648Z,5.55
2019-05-07T06:53:51.727Z,6.08
2019-05-07T06:56:23.126Z,5.72
2019-05-07T06:59:06.384Z,5.30
2019-05-07T07:01:48.154Z,5.85
2019-05-07T07:04:22.516Z,5.30
2019-05-07T07:07:26.654Z,5.03
2019-05-07T07:12:27.376Z,5.40
2019-05-07T07:15:03.397Z,4.80
2019-05-07T18:06:52.216Z,7.35
2019-05-07T18:16:02.993Z,11.28
2019-05-07T18:18:34.655Z,10.55
2019-05-07T18:21:05.970Z,11.73
2019-05-07T18:23:37.274Z,11.60
2019-05-07T18:26:08.659Z,10.38
2019-05-07T18:28:41.703Z,10.32
2019-05-07T18:31:15.762Z,8.83
2019-05-07T18:33:47.750Z,7.80
2019-05-07T18:36:19.115Z,8.33
2019-05-07T18:38:52.697Z,8.00
2019-05-07T18:41:23.569Z,8.03
2019-05-07T18:43:54.908Z,7.62
2019-05-07T18:46:26.198Z,8.05
2019-05-07T18:48:57.519Z,8.28
2019-05-07T18:51:28.893Z,8.98
2019-05-07T18:54:02.302Z,8.83
2019-05-07T18:56:34.543Z,8.33
2019-05-07T18:59:07.272Z,9.60
2019-05-07T19:01:42.196Z,9.18
2019-05-07T19:04:13.303Z,8.33
2019-05-07T19:06:44.527Z,8.80
2019-05-07T19:09:15.976Z,8.78
2019-05-07T19:11:47.348Z,8.90
2019-05-07T19:14:18.773Z,8.98
2019-05-07T19:16:52.412Z,9.30
2019-05-07T19:19:23.129Z,8.38
2019-05-07T19:21:55.963Z,8.63
2019-05-07T19:24:40.825Z,9.13
2019-05-07T19:27:02.218Z,8.60
2019-05-07T19:29:34.202Z,8.93
2019-05-07T19:32:07.009Z,9.83
2019-05-07T19:34:38.278Z,8.45
2019-05-07T19:37:09.521Z,8.58
2019-05-07T19:39:42.851Z,8.60
2019-05-07T19:42:13.785Z,8.48
2019-05-07T19:44:45.065Z,8.33
2019-05-07T19:47:16.729Z,8.73
2019-05-07T19:49:47.989Z,7.75
2019-05-07T19:52:19.275Z,8.53
2019-05-07T19:54:58.740Z,8.70
2019-05-07T19:57:35.182Z,9.20
2019-05-07T20:00:12.028Z,8.30
2019-05-07T20:02:47.211Z,8.88
2019-05-07T20:05:18.473Z,8.40
2019-05-07T20:07:53.332Z,8.53
2019-05-07T20:10:24.177Z,8.50
2019-05-07T20:12:55.418Z,8.10
2019-05-07T20:15:26.820Z,8.08
2019-05-07T20:17:58.138Z,8.50
2019-05-07T20:20:29.564Z,8.38
2019-05-07T20:23:02.562Z,7.55
2019-05-07T20:25:34.186Z,9.38
2019-05-07T20:28:05.512Z,8.75
2019-05-07T20:30:36.803Z,9.70
2019-05-07T20:33:08.141Z,9.10
2019-05-07T20:35:41.905Z,8.38
2019-05-07T20:38:12.735Z,8.20
2019-05-07T20:40:44.021Z,8.70
2019-05-07T20:45:45.891Z,9.48
2019-05-07T20:50:47.790Z,8.95
2019-05-07T20:53:21.836Z,8.68
2019-05-07T20:55:57.916Z,8.93
2019-05-07T20:58:29.278Z,8.58
2019-05-07T21:01:02.801Z,8.33
2019-05-07T21:03:33.912Z,10.18
2019-05-07T21:08:35.676Z,7.65
2019-05-07T21:11:07.062Z,8.38
2019-05-07T21:13:41.732Z,8.53
2019-05-07T21:16:12.680Z,8.93
2019-05-07T21:18:44.231Z,8.50
2019-05-07T21:21:15.531Z,8.18
2019-05-07T21:23:46.902Z,8.70
2019-05-07T21:26:18.286Z,8.00
2019-05-07T21:28:49.672Z,8.35
2019-05-07T21:31:22.803Z,8.13
2019-05-07T21:33:54.094Z,8.48
2019-05-07T21:36:25.452Z,8.83
2019-05-07T21:38:56.764Z,8.80
2019-05-07T21:41:28.129Z,9.05
2019-05-07T21:43:59.406Z,7.67
2019-05-07T21:46:32.807Z,8.10
2019-05-07T21:49:03.797Z,8.95
2019-05-07T21:51:35.203Z,7.97
2019-05-07T21:54:08.161Z,8.23
2019-05-07T21:56:54.591Z,8.95
2019-05-07T21:59:27.643Z,8.88
2019-05-07T22:02:03.554Z,8.95
2019-05-07T22:04:34.893Z,9.18
2019-05-07T22:07:06.266Z,9.45
2019-05-07T22:09:37.617Z,9.58
2019-05-07T22:12:09.092Z,10.50
2019-05-07T22:17:12.752Z,10.43
2019-05-07T22:19:44.189Z,11.78
2019-05-07T22:22:15.557Z,11.70
2019-05-07T22:24:49.424Z,11.95
2019-05-07T22:27:22.440Z,10.85
2019-05-07T22:29:53.827Z,10.72
2019-05-07T22:32:32.732Z,10.28
2019-05-07T22:35:06.553Z,10.60
2019-05-07T22:37:39.378Z,10.38
2019-05-07T22:40:15.050Z,11.18
2019-05-07T22:42:47.863Z,11.53
2019-05-07T22:45:19.211Z,11.75
2019-05-07T22:47:52.518Z,11.30
2019-05-07T22:50:23.659Z,12.18
2019-05-07T22:52:55.021Z,11.93
2019-05-07T22:55:26.374Z,12.58
2019-05-07T22:58:03.290Z,11.95
2019-05-07T23:00:36.203Z,11.80
2019-05-07T23:03:07.696Z,12.35
2019-05-07T23:05:39.091Z,12.85
2019-05-07T23:08:12.659Z,12.28
2019-05-07T23:10:45.017Z,12.10
2019-05-07T23:13:18.154Z,12.05
2019-05-07T23:15:53.850Z,12.03
2019-05-07T23:18:28.891Z,12.07
2019-05-07T23:21:00.253Z,11.97
2019-05-07T23:23:32.545Z,13.25
2019-05-07T23:26:03.960Z,12.58
2019-05-07T23:28:35.246Z,10.95
2019-05-07T23:31:07.559Z,11.90
2019-05-07T23:33:38.933Z,12.00
2019-05-07T23:36:10.260Z,10.88
2019-05-07T23:38:42.630Z,11.75
2019-05-07T23:41:22.300Z,12.58
2019-05-07T23:44:13.548Z,10.68
2019-05-07T23:46:45.208Z,11.22
2019-05-07T23:49:17.225Z,10.72
2019-05-07T23:51:48.578Z,9.50
2019-05-07T23:54:23.009Z,9.18
2019-05-07T23:57:05.935Z,9.53
2019-05-07T23:59:28.190Z,9.50
